sensor_id;sensor_type;location;lat;lon;timestamp;P1;durP1;ratioP1;P2;durP2;ratioP2
49626;SDS011;35527;54.616;39.786;2023-04-04T00:02:56;8.02;;;4.55;;
49626;SDS011;35527;54.616;39.786;2023-04-04T00:06:00;7.40;;;4.82;;
49626;SDS011;35527;54.616;39.786;2023-04-04T00:09:04;10.48;;;3.20;;
49626;SDS011;35527;54.616;39.786;2023-04-04T00:12:07;7.82;;;3.33;;
49626;SDS011;35527;54.616;39.786;2023-04-04T00:15:12;7.10;;;4.57;;
49626;SDS011;35527;54.616;39.786;2023-04-04T00:18:15;7.18;;;4.90;;
49626;SDS011;35527;54.616;39.786;2023-04-04T00:21:18;5.95;;;2.60;;
49626;SDS011;35527;54.616;39.786;2023-04-04T00:24:21;7.25;;;3.33;;
49626;SDS011;35527;54.616;39.786;2023-04-04T00:27:26;7.32;;;4.50;;
49626;SDS011;35527;54.616;39.786;2023-04-04T00:30:30;6.78;;;4.25;;
49626;SDS011;35527;54.616;39.786;2023-04-04T00:33:33;9.00;;;4.70;;
49626;SDS011;35527;54.616;39.786;2023-04-04T00:36:39;7.40;;;4.50;;
49626;SDS011;35527;54.616;39.786;2023-04-04T00:39:44;7.88;;;4.65;;
49626;SDS011;35527;54.616;39.786;2023-04-04T00:42:47;7.20;;;4.35;;
49626;SDS011;35527;54.616;39.786;2023-04-04T00:45:51;7.32;;;4.57;;
49626;SDS011;35527;54.616;39.786;2023-04-04T00:48:54;8.13;;;4.90;;
49626;SDS011;35527;54.616;39.786;2023-04-04T00:51:58;8.55;;;4.82;;
49626;SDS011;35527;54.616;39.786;2023-04-04T00:55:01;5.63;;;2.85;;
49626;SDS011;35527;54.616;39.786;2023-04-04T00:58:07;6.63;;;3.08;;
49626;SDS011;35527;54.616;39.786;2023-04-04T01:01:12;6.60;;;4.20;;
49626;SDS011;35527;54.616;39.786;2023-04-04T01:04:20;7.63;;;2.83;;
49626;SDS011;35527;54.616;39.786;2023-04-04T01:07:26;7.25;;;4.53;;
49626;SDS011;35527;54.616;39.786;2023-04-04T01:10:32;8.65;;;4.10;;
49626;SDS011;35527;54.616;39.786;2023-04-04T01:13:36;6.43;;;3.05;;
49626;SDS011;35527;54.616;39.786;2023-04-04T01:16:45;11.88;;;3.30;;
49626;SDS011;35527;54.616;39.786;2023-04-04T01:23:17;10.10;;;4.97;;
49626;SDS011;35527;54.616;39.786;2023-04-04T01:26:26;7.88;;;4.63;;
49626;SDS011;35527;54.616;39.786;2023-04-04T01:29:40;7.63;;;4.65;;
49626;SDS011;35527;54.616;39.786;2023-04-04T01:32:56;7.15;;;4.80;;
49626;SDS011;35527;54.616;39.786;2023-04-04T01:36:24;6.47;;;2.92;;
49626;SDS011;35527;54.616;39.786;2023-04-04T01:40:35;5.43;;;3.15;;
49626;SDS011;35527;54.616;39.786;2023-04-04T01:43:34;6.80;;;3.13;;
49626;SDS011;35527;54.616;39.786;2023-04-04T01:46:39;8.73;;;4.68;;
49626;SDS011;35527;54.616;39.786;2023-04-04T01:49:43;9.00;;;4.47;;
49626;SDS011;35527;54.616;39.786;2023-04-04T01:52:51;8.48;;;4.35;;
49626;SDS011;35527;54.616;39.786;2023-04-04T01:55:54;7.80;;;5.20;;
49626;SDS011;35527;54.616;39.786;2023-04-04T01:59:00;10.55;;;5.43;;
49626;SDS011;35527;54.616;39.786;2023-04-04T02:02:02;8.30;;;5.35;;
49626;SDS011;35527;54.616;39.786;2023-04-04T02:05:06;10.98;;;5.90;;
49626;SDS011;35527;54.616;39.786;2023-04-04T02:08:11;8.70;;;4.47;;
49626;SDS011;35527;54.616;39.786;2023-04-04T02:11:22;12.30;;;6.63;;
49626;SDS011;35527;54.616;39.786;2023-04-04T02:14:25;8.65;;;4.60;;
49626;SDS011;35527;54.616;39.786;2023-04-04T02:17:30;9.48;;;6.15;;
49626;SDS011;35527;54.616;39.786;2023-04-04T02:20:33;11.05;;;6.10;;
49626;SDS011;35527;54.616;39.786;2023-04-04T02:23:42;10.77;;;6.50;;
49626;SDS011;35527;54.616;39.786;2023-04-04T02:26:44;10.40;;;6.22;;
49626;SDS011;35527;54.616;39.786;2023-04-04T02:29:50;9.60;;;6.07;;
49626;SDS011;35527;54.616;39.786;2023-04-04T02:39:06;8.00;;;3.65;;
49626;SDS011;35527;54.616;39.786;2023-04-04T02:42:17;10.25;;;5.45;;
49626;SDS011;35527;54.616;39.786;2023-04-04T02:45:21;7.60;;;5.32;;
49626;SDS011;35527;54.616;39.786;2023-04-04T02:48:35;6.78;;;3.42;;
49626;SDS011;35527;54.616;39.786;2023-04-04T02:51:37;9.45;;;3.83;;
49626;SDS011;35527;54.616;39.786;2023-04-04T02:57:54;9.70;;;3.50;;
49626;SDS011;35527;54.616;39.786;2023-04-04T03:00:58;8.75;;;4.45;;
49626;SDS011;35527;54.616;39.786;2023-04-04T03:07:33;7.38;;;3.95;;
49626;SDS011;35527;54.616;39.786;2023-04-04T03:13:42;7.65;;;3.50;;
49626;SDS011;35527;54.616;39.786;2023-04-04T03:16:47;8.57;;;4.90;;
49626;SDS011;35527;54.616;39.786;2023-04-04T03:19:54;8.65;;;3.60;;
49626;SDS011;35527;54.616;39.786;2023-04-04T03:22:57;8.77;;;4.15;;
49626;SDS011;35527;54.616;39.786;2023-04-04T03:26:01;9.73;;;4.55;;
49626;SDS011;35527;54.616;39.786;2023-04-04T03:29:06;8.88;;;4.90;;
49626;SDS011;35527;54.616;39.786;2023-04-04T03:32:09;9.18;;;4.20;;
49626;SDS011;35527;54.616;39.786;2023-04-04T03:35:13;8.27;;;4.22;;
49626;SDS011;35527;54.616;39.786;2023-04-04T03:38:20;7.40;;;4.00;;
49626;SDS011;35527;54.616;39.786;2023-04-04T03:41:25;7.32;;;3.70;;
49626;SDS011;35527;54.616;39.786;2023-04-04T03:44:28;6.85;;;3.95;;
49626;SDS011;35527;54.616;39.786;2023-04-04T03:47:31;7.20;;;4.03;;
49626;SDS011;35527;54.616;39.786;2023-04-04T03:50:34;9.15;;;4.47;;
49626;SDS011;35527;54.616;39.786;2023-04-04T03:53:40;11.30;;;4.35;;
49626;SDS011;35527;54.616;39.786;2023-04-04T03:56:47;13.40;;;4.78;;
49626;SDS011;35527;54.616;39.786;2023-04-04T03:59:50;8.68;;;4.03;;
49626;SDS011;35527;54.616;39.786;2023-04-04T04:02:58;8.30;;;4.28;;
49626;SDS011;35527;54.616;39.786;2023-04-04T04:06:01;10.35;;;4.75;;
49626;SDS011;35527;54.616;39.786;2023-04-04T04:12:11;11.38;;;4.55;;
49626;SDS011;35527;54.616;39.786;2023-04-04T04:15:16;9.63;;;5.03;;
49626;SDS011;35527;54.616;39.786;2023-04-04T04:18:21;9.27;;;4.33;;
49626;SDS011;35527;54.616;39.786;2023-04-04T04:21:26;11.88;;;4.40;;
49626;SDS011;35527;54.616;39.786;2023-04-04T04:24:28;10.90;;;4.35;;
49626;SDS011;35527;54.616;39.786;2023-04-04T04:27:34;8.63;;;4.28;;
49626;SDS011;35527;54.616;39.786;2023-04-04T04:30:37;9.10;;;5.00;;
49626;SDS011;35527;54.616;39.786;2023-04-04T04:33:43;13.82;;;5.22;;
49626;SDS011;35527;54.616;39.786;2023-04-04T04:36:47;12.82;;;4.78;;
49626;SDS011;35527;54.616;39.786;2023-04-04T04:39:59;10.18;;;5.25;;
49626;SDS011;35527;54.616;39.786;2023-04-04T04:43:12;12.45;;;5.45;;
49626;SDS011;35527;54.616;39.786;2023-04-04T04:46:15;17.35;;;5.55;;
49626;SDS011;35527;54.616;39.786;2023-04-04T04:49:19;15.30;;;5.38;;
49626;SDS011;35527;54.616;39.786;2023-04-04T04:52:26;19.83;;;5.30;;
49626;SDS011;35527;54.616;39.786;2023-04-04T04:55:30;12.63;;;5.00;;
49626;SDS011;35527;54.616;39.786;2023-04-04T04:58:41;19.50;;;4.90;;
49626;SDS011;35527;54.616;39.786;2023-04-04T05:01:54;12.90;;;4.63;;
49626;SDS011;35527;54.616;39.786;2023-04-04T05:08:07;16.77;;;5.10;;
49626;SDS011;35527;54.616;39.786;2023-04-04T05:11:15;18.13;;;5.25;;
49626;SDS011;35527;54.616;39.786;2023-04-04T05:14:20;15.23;;;5.53;;
49626;SDS011;35527;54.616;39.786;2023-04-04T05:17:28;20.35;;;10.55;;
49626;SDS011;35527;54.616;39.786;2023-04-04T05:20:38;17.55;;;8.10;;
49626;SDS011;35527;54.616;39.786;2023-04-04T05:23:46;14.48;;;7.15;;
49626;SDS011;35527;54.616;39.786;2023-04-04T05:26:51;18.60;;;8.20;;
49626;SDS011;35527;54.616;39.786;2023-04-04T05:29:56;16.55;;;8.57;;
49626;SDS011;35527;54.616;39.786;2023-04-04T05:33:07;18.10;;;11.25;;
49626;SDS011;35527;54.616;39.786;2023-04-04T05:36:21;20.20;;;12.68;;
49626;SDS011;35527;54.616;39.786;2023-04-04T05:39:32;24.27;;;14.27;;
49626;SDS011;35527;54.616;39.786;2023-04-04T05:42:40;20.40;;;8.63;;
49626;SDS011;35527;54.616;39.786;2023-04-04T05:45:47;19.60;;;8.82;;
49626;SDS011;35527;54.616;39.786;2023-04-04T05:48:50;18.48;;;6.30;;
49626;SDS011;35527;54.616;39.786;2023-04-04T05:51:54;17.08;;;6.55;;
49626;SDS011;35527;54.616;39.786;2023-04-04T05:55:05;16.63;;;6.93;;
49626;SDS011;35527;54.616;39.786;2023-04-04T05:58:11;17.17;;;7.78;;
49626;SDS011;35527;54.616;39.786;2023-04-04T06:01:25;18.15;;;7.40;;
49626;SDS011;35527;54.616;39.786;2023-04-04T06:04:31;19.73;;;5.88;;
49626;SDS011;35527;54.616;39.786;2023-04-04T06:07:40;32.22;;;13.40;;
49626;SDS011;35527;54.616;39.786;2023-04-04T06:10:44;22.15;;;9.77;;
49626;SDS011;35527;54.616;39.786;2023-04-04T06:13:49;16.70;;;7.88;;
49626;SDS011;35527;54.616;39.786;2023-04-04T06:19:58;19.95;;;5.85;;
49626;SDS011;35527;54.616;39.786;2023-04-04T06:23:02;17.20;;;5.00;;
49626;SDS011;35527;54.616;39.786;2023-04-04T06:26:10;17.08;;;6.90;;
49626;SDS011;35527;54.616;39.786;2023-04-04T06:29:16;27.70;;;7.05;;
49626;SDS011;35527;54.616;39.786;2023-04-04T06:32:19;22.02;;;7.50;;
49626;SDS011;35527;54.616;39.786;2023-04-04T06:35:23;17.17;;;5.70;;
49626;SDS011;35527;54.616;39.786;2023-04-04T06:38:34;24.40;;;9.77;;
49626;SDS011;35527;54.616;39.786;2023-04-04T06:41:43;30.95;;;6.47;;
49626;SDS011;35527;54.616;39.786;2023-04-04T06:44:50;21.73;;;6.03;;
49626;SDS011;35527;54.616;39.786;2023-04-04T06:47:53;28.55;;;6.10;;
49626;SDS011;35527;54.616;39.786;2023-04-04T06:50:56;15.77;;;4.72;;
49626;SDS011;35527;54.616;39.786;2023-04-04T06:54:01;17.50;;;5.97;;
49626;SDS011;35527;54.616;39.786;2023-04-04T06:57:05;18.55;;;4.47;;
49626;SDS011;35527;54.616;39.786;2023-04-04T07:00:09;19.05;;;5.15;;
49626;SDS011;35527;54.616;39.786;2023-04-04T07:03:15;14.13;;;3.90;;
49626;SDS011;35527;54.616;39.786;2023-04-04T07:06:21;15.57;;;4.38;;
49626;SDS011;35527;54.616;39.786;2023-04-04T07:09:27;17.95;;;5.00;;
49626;SDS011;35527;54.616;39.786;2023-04-04T07:12:32;16.92;;;3.80;;
49626;SDS011;35527;54.616;39.786;2023-04-04T07:15:35;10.10;;;3.05;;
49626;SDS011;35527;54.616;39.786;2023-04-04T07:18:40;17.25;;;3.92;;
49626;SDS011;35527;54.616;39.786;2023-04-04T07:24:46;14.98;;;4.25;;
49626;SDS011;35527;54.616;39.786;2023-04-04T07:27:51;14.35;;;4.18;;
49626;SDS011;35527;54.616;39.786;2023-04-04T07:31:00;9.68;;;3.13;;
49626;SDS011;35527;54.616;39.786;2023-04-04T07:34:07;9.85;;;2.90;;
49626;SDS011;35527;54.616;39.786;2023-04-04T07:37:11;13.77;;;3.60;;
49626;SDS011;35527;54.616;39.786;2023-04-04T07:40:15;13.35;;;3.80;;
49626;SDS011;35527;54.616;39.786;2023-04-04T07:43:19;9.20;;;3.50;;
49626;SDS011;35527;54.616;39.786;2023-04-04T07:46:21;21.08;;;4.20;;
49626;SDS011;35527;54.616;39.786;2023-04-04T07:49:25;14.18;;;4.43;;
49626;SDS011;35527;54.616;39.786;2023-04-04T07:52:31;13.38;;;4.30;;
49626;SDS011;35527;54.616;39.786;2023-04-04T07:55:34;17.83;;;4.55;;
49626;SDS011;35527;54.616;39.786;2023-04-04T07:58:37;14.27;;;4.15;;
49626;SDS011;35527;54.616;39.786;2023-04-04T08:01:41;17.95;;;4.63;;
49626;SDS011;35527;54.616;39.786;2023-04-04T08:04:48;15.65;;;4.32;;
49626;SDS011;35527;54.616;39.786;2023-04-04T08:07:53;20.65;;;4.47;;
49626;SDS011;35527;54.616;39.786;2023-04-04T08:10:57;16.25;;;4.50;;
49626;SDS011;35527;54.616;39.786;2023-04-04T08:14:02;16.45;;;4.55;;
49626;SDS011;35527;54.616;39.786;2023-04-04T08:17:09;13.38;;;3.53;;
49626;SDS011;35527;54.616;39.786;2023-04-04T08:20:14;19.10;;;3.92;;
49626;SDS011;35527;54.616;39.786;2023-04-04T08:23:17;17.00;;;4.35;;
49626;SDS011;35527;54.616;39.786;2023-04-04T08:26:20;14.05;;;4.20;;
49626;SDS011;35527;54.616;39.786;2023-04-04T08:29:24;24.55;;;9.02;;
49626;SDS011;35527;54.616;39.786;2023-04-04T08:32:28;18.80;;;6.03;;
49626;SDS011;35527;54.616;39.786;2023-04-04T08:35:30;14.35;;;4.07;;
49626;SDS011;35527;54.616;39.786;2023-04-04T08:38:34;16.35;;;5.10;;
49626;SDS011;35527;54.616;39.786;2023-04-04T08:41:38;14.27;;;3.97;;
49626;SDS011;35527;54.616;39.786;2023-04-04T08:44:48;13.90;;;4.07;;
49626;SDS011;35527;54.616;39.786;2023-04-04T08:47:57;13.18;;;4.10;;
49626;SDS011;35527;54.616;39.786;2023-04-04T08:51:09;15.80;;;4.28;;
49626;SDS011;35527;54.616;39.786;2023-04-04T08:54:16;15.75;;;4.93;;
49626;SDS011;35527;54.616;39.786;2023-04-04T08:57:22;20.67;;;4.63;;
49626;SDS011;35527;54.616;39.786;2023-04-04T09:00:25;19.33;;;5.22;;
49626;SDS011;35527;54.616;39.786;2023-04-04T09:03:29;17.70;;;4.82;;
49626;SDS011;35527;54.616;39.786;2023-04-04T09:06:36;17.38;;;4.38;;
49626;SDS011;35527;54.616;39.786;2023-04-04T09:09:39;20.75;;;5.15;;
49626;SDS011;35527;54.616;39.786;2023-04-04T09:12:47;12.35;;;4.45;;
49626;SDS011;35527;54.616;39.786;2023-04-04T09:15:53;13.55;;;4.78;;
49626;SDS011;35527;54.616;39.786;2023-04-04T09:18:59;13.48;;;4.20;;
49626;SDS011;35527;54.616;39.786;2023-04-04T09:25:10;10.85;;;3.80;;
49626;SDS011;35527;54.616;39.786;2023-04-04T09:28:16;8.45;;;3.28;;
49626;SDS011;35527;54.616;39.786;2023-04-04T09:34:22;13.63;;;4.32;;
49626;SDS011;35527;54.616;39.786;2023-04-04T09:37:26;12.13;;;3.88;;
49626;SDS011;35527;54.616;39.786;2023-04-04T09:43:39;17.90;;;4.25;;
49626;SDS011;35527;54.616;39.786;2023-04-04T09:46:41;11.55;;;4.15;;
49626;SDS011;35527;54.616;39.786;2023-04-04T09:49:45;15.18;;;4.22;;
49626;SDS011;35527;54.616;39.786;2023-04-04T09:52:51;13.90;;;3.47;;
49626;SDS011;35527;54.616;39.786;2023-04-04T09:56:01;13.35;;;4.13;;
49626;SDS011;35527;54.616;39.786;2023-04-04T09:59:04;11.60;;;3.60;;
49626;SDS011;35527;54.616;39.786;2023-04-04T10:02:08;10.73;;;3.90;;
49626;SDS011;35527;54.616;39.786;2023-04-04T10:08:22;14.43;;;4.03;;
49626;SDS011;35527;54.616;39.786;2023-04-04T10:11:31;14.25;;;3.40;;
49626;SDS011;35527;54.616;39.786;2023-04-04T10:14:35;13.88;;;4.25;;
49626;SDS011;35527;54.616;39.786;2023-04-04T10:17:41;10.43;;;3.93;;
49626;SDS011;35527;54.616;39.786;2023-04-04T10:20:47;10.82;;;3.45;;
49626;SDS011;35527;54.616;39.786;2023-04-04T10:23:51;16.05;;;4.18;;
49626;SDS011;35527;54.616;39.786;2023-04-04T10:26:55;12.15;;;3.72;;
49626;SDS011;35527;54.616;39.786;2023-04-04T10:29:59;11.93;;;3.80;;
49626;SDS011;35527;54.616;39.786;2023-04-04T10:36:08;11.75;;;3.88;;
49626;SDS011;35527;54.616;39.786;2023-04-04T10:39:23;9.63;;;3.85;;
49626;SDS011;35527;54.616;39.786;2023-04-04T10:42:31;11.65;;;4.22;;
49626;SDS011;35527;54.616;39.786;2023-04-04T10:45:40;16.45;;;8.10;;
49626;SDS011;35527;54.616;39.786;2023-04-04T10:48:45;13.15;;;4.00;;
49626;SDS011;35527;54.616;39.786;2023-04-04T10:51:50;16.70;;;3.97;;
49626;SDS011;35527;54.616;39.786;2023-04-04T10:54:59;13.65;;;3.60;;
49626;SDS011;35527;54.616;39.786;2023-04-04T10:58:08;9.85;;;3.70;;
49626;SDS011;35527;54.616;39.786;2023-04-04T11:01:12;12.53;;;3.73;;
49626;SDS011;35527;54.616;39.786;2023-04-04T11:04:18;14.73;;;4.05;;
49626;SDS011;35527;54.616;39.786;2023-04-04T11:07:23;15.75;;;3.60;;
49626;SDS011;35527;54.616;39.786;2023-04-04T11:10:31;19.40;;;3.90;;
49626;SDS011;35527;54.616;39.786;2023-04-04T11:13:36;9.95;;;3.53;;
49626;SDS011;35527;54.616;39.786;2023-04-04T11:16:47;12.60;;;3.35;;
49626;SDS011;35527;54.616;39.786;2023-04-04T11:19:57;8.93;;;3.67;;
49626;SDS011;35527;54.616;39.786;2023-04-04T11:23:08;13.50;;;3.67;;
49626;SDS011;35527;54.616;39.786;2023-04-04T11:26:17;11.35;;;3.65;;
49626;SDS011;35527;54.616;39.786;2023-04-04T11:29:50;10.77;;;3.40;;
49626;SDS011;35527;54.616;39.786;2023-04-04T11:33:01;12.80;;;4.30;;
49626;SDS011;35527;54.616;39.786;2023-04-04T11:36:08;11.15;;;3.33;;
49626;SDS011;35527;54.616;39.786;2023-04-04T11:42:37;13.18;;;3.60;;
49626;SDS011;35527;54.616;39.786;2023-04-04T11:45:43;11.85;;;3.60;;
49626;SDS011;35527;54.616;39.786;2023-04-04T11:48:47;14.20;;;4.13;;
49626;SDS011;35527;54.616;39.786;2023-04-04T11:51:50;13.55;;;3.92;;
49626;SDS011;35527;54.616;39.786;2023-04-04T11:58:09;13.48;;;3.35;;
49626;SDS011;35527;54.616;39.786;2023-04-04T12:01:18;16.38;;;3.60;;
49626;SDS011;35527;54.616;39.786;2023-04-04T12:04:21;18.35;;;3.35;;
49626;SDS011;35527;54.616;39.786;2023-04-04T12:07:27;14.25;;;3.13;;
49626;SDS011;35527;54.616;39.786;2023-04-04T12:10:33;20.77;;;3.33;;
49626;SDS011;35527;54.616;39.786;2023-04-04T12:13:40;13.48;;;3.03;;
49626;SDS011;35527;54.616;39.786;2023-04-04T12:16:46;14.77;;;3.38;;
49626;SDS011;35527;54.616;39.786;2023-04-04T12:19:51;12.88;;;2.63;;
49626;SDS011;35527;54.616;39.786;2023-04-04T12:22:56;11.35;;;2.67;;
49626;SDS011;35527;54.616;39.786;2023-04-04T12:26:00;10.13;;;2.80;;
49626;SDS011;35527;54.616;39.786;2023-04-04T12:29:07;18.33;;;3.25;;
49626;SDS011;35527;54.616;39.786;2023-04-04T12:32:12;12.02;;;2.75;;
49626;SDS011;35527;54.616;39.786;2023-04-04T12:35:18;14.85;;;2.97;;
49626;SDS011;35527;54.616;39.786;2023-04-04T12:38:22;16.20;;;3.17;;
49626;SDS011;35527;54.616;39.786;2023-04-04T12:41:27;18.27;;;3.22;;
49626;SDS011;35527;54.616;39.786;2023-04-04T12:44:35;15.27;;;3.23;;
49626;SDS011;35527;54.616;39.786;2023-04-04T12:47:53;12.40;;;2.75;;
49626;SDS011;35527;54.616;39.786;2023-04-04T12:50:59;17.85;;;3.67;;
49626;SDS011;35527;54.616;39.786;2023-04-04T12:54:06;16.45;;;3.17;;
49626;SDS011;35527;54.616;39.786;2023-04-04T12:57:20;16.00;;;2.60;;
49626;SDS011;35527;54.616;39.786;2023-04-04T13:00:32;15.00;;;3.35;;
49626;SDS011;35527;54.616;39.786;2023-04-04T13:03:37;17.38;;;3.22;;
49626;SDS011;35527;54.616;39.786;2023-04-04T13:06:43;15.27;;;3.63;;
49626;SDS011;35527;54.616;39.786;2023-04-04T13:09:55;15.77;;;3.75;;
49626;SDS011;35527;54.616;39.786;2023-04-04T13:13:09;17.05;;;4.75;;
49626;SDS011;35527;54.616;39.786;2023-04-04T13:16:33;15.73;;;4.07;;
49626;SDS011;35527;54.616;39.786;2023-04-04T13:19:41;19.48;;;4.55;;
49626;SDS011;35527;54.616;39.786;2023-04-04T13:22:47;20.95;;;4.80;;
49626;SDS011;35527;54.616;39.786;2023-04-04T13:25:54;12.40;;;3.58;;
49626;SDS011;35527;54.616;39.786;2023-04-04T13:29:01;12.27;;;3.58;;
49626;SDS011;35527;54.616;39.786;2023-04-04T13:32:08;17.52;;;4.47;;
49626;SDS011;35527;54.616;39.786;2023-04-04T13:35:13;11.98;;;3.58;;
49626;SDS011;35527;54.616;39.786;2023-04-04T13:38:20;15.88;;;4.30;;
49626;SDS011;35527;54.616;39.786;2023-04-04T13:41:23;12.90;;;3.45;;
49626;SDS011;35527;54.616;39.786;2023-04-04T13:44:34;15.23;;;3.83;;
49626;SDS011;35527;54.616;39.786;2023-04-04T13:47:49;16.98;;;3.72;;
49626;SDS011;35527;54.616;39.786;2023-04-04T13:51:00;17.65;;;4.45;;
49626;SDS011;35527;54.616;39.786;2023-04-04T13:54:09;18.83;;;5.53;;
49626;SDS011;35527;54.616;39.786;2023-04-04T13:57:13;14.23;;;3.88;;
49626;SDS011;35527;54.616;39.786;2023-04-04T14:00:21;16.63;;;5.55;;
49626;SDS011;35527;54.616;39.786;2023-04-04T14:03:34;16.80;;;4.72;;
49626;SDS011;35527;54.616;39.786;2023-04-04T14:06:42;15.10;;;4.25;;
49626;SDS011;35527;54.616;39.786;2023-04-04T14:09:56;18.77;;;5.50;;
49626;SDS011;35527;54.616;39.786;2023-04-04T14:13:05;17.88;;;4.57;;
49626;SDS011;35527;54.616;39.786;2023-04-04T14:16:22;14.40;;;3.67;;
49626;SDS011;35527;54.616;39.786;2023-04-04T14:19:37;13.73;;;3.83;;
49626;SDS011;35527;54.616;39.786;2023-04-04T14:22:47;12.60;;;3.80;;
49626;SDS011;35527;54.616;39.786;2023-04-04T14:26:01;15.90;;;4.05;;
49626;SDS011;35527;54.616;39.786;2023-04-04T14:29:12;16.55;;;4.32;;
49626;SDS011;35527;54.616;39.786;2023-04-04T14:32:25;14.80;;;3.65;;
49626;SDS011;35527;54.616;39.786;2023-04-04T14:35:39;11.98;;;3.83;;
49626;SDS011;35527;54.616;39.786;2023-04-04T14:38:49;21.90;;;4.55;;
49626;SDS011;35527;54.616;39.786;2023-04-04T14:42:00;11.27;;;4.25;;
49626;SDS011;35527;54.616;39.786;2023-04-04T14:45:08;19.58;;;4.47;;
49626;SDS011;35527;54.616;39.786;2023-04-04T14:48:16;17.58;;;4.55;;
49626;SDS011;35527;54.616;39.786;2023-04-04T14:51:30;12.57;;;3.92;;
49626;SDS011;35527;54.616;39.786;2023-04-04T14:54:36;13.98;;;3.97;;
49626;SDS011;35527;54.616;39.786;2023-04-04T14:57:40;12.85;;;4.70;;
49626;SDS011;35527;54.616;39.786;2023-04-04T15:01:01;12.07;;;3.80;;
49626;SDS011;35527;54.616;39.786;2023-04-04T15:04:14;15.70;;;4.47;;
49626;SDS011;35527;54.616;39.786;2023-04-04T15:07:23;12.95;;;3.53;;
49626;SDS011;35527;54.616;39.786;2023-04-04T15:10:33;15.98;;;3.97;;
49626;SDS011;35527;54.616;39.786;2023-04-04T15:13:48;18.17;;;3.95;;
49626;SDS011;35527;54.616;39.786;2023-04-04T15:17:08;14.02;;;4.20;;
49626;SDS011;35527;54.616;39.786;2023-04-04T15:20:22;14.23;;;4.07;;
49626;SDS011;35527;54.616;39.786;2023-04-04T15:23:33;27.73;;;5.20;;
49626;SDS011;35527;54.616;39.786;2023-04-04T15:26:37;19.13;;;5.43;;
49626;SDS011;35527;54.616;39.786;2023-04-04T15:29:44;16.45;;;5.30;;
49626;SDS011;35527;54.616;39.786;2023-04-04T15:32:49;16.80;;;5.30;;
49626;SDS011;35527;54.616;39.786;2023-04-04T15:35:54;12.77;;;4.75;;
49626;SDS011;35527;54.616;39.786;2023-04-04T15:38:59;10.70;;;6.38;;
49626;SDS011;35527;54.616;39.786;2023-04-04T15:42:09;14.85;;;7.75;;
49626;SDS011;35527;54.616;39.786;2023-04-04T15:45:16;12.00;;;4.70;;
49626;SDS011;35527;54.616;39.786;2023-04-04T15:48:20;15.13;;;4.93;;
49626;SDS011;35527;54.616;39.786;2023-04-04T15:51:24;21.65;;;5.80;;
49626;SDS011;35527;54.616;39.786;2023-04-04T15:54:32;22.02;;;6.30;;
49626;SDS011;35527;54.616;39.786;2023-04-04T15:57:39;12.07;;;5.22;;
49626;SDS011;35527;54.616;39.786;2023-04-04T16:00:45;13.85;;;5.50;;
49626;SDS011;35527;54.616;39.786;2023-04-04T16:03:48;15.55;;;5.00;;
49626;SDS011;35527;54.616;39.786;2023-04-04T16:06:52;8.38;;;4.40;;
49626;SDS011;35527;54.616;39.786;2023-04-04T16:09:56;16.10;;;5.43;;
49626;SDS011;35527;54.616;39.786;2023-04-04T16:12:59;11.88;;;5.43;;
49626;SDS011;35527;54.616;39.786;2023-04-04T16:16:01;11.93;;;5.43;;
49626;SDS011;35527;54.616;39.786;2023-04-04T16:22:10;17.65;;;6.28;;
49626;SDS011;35527;54.616;39.786;2023-04-04T16:28:22;41.47;;;15.82;;
49626;SDS011;35527;54.616;39.786;2023-04-04T16:31:25;41.33;;;10.43;;
49626;SDS011;35527;54.616;39.786;2023-04-04T16:34:29;49.55;;;16.23;;
49626;SDS011;35527;54.616;39.786;2023-04-04T16:37:33;42.53;;;13.68;;
49626;SDS011;35527;54.616;39.786;2023-04-04T16:40:39;37.28;;;12.23;;
49626;SDS011;35527;54.616;39.786;2023-04-04T16:43:44;29.05;;;9.50;;
49626;SDS011;35527;54.616;39.786;2023-04-04T16:46:50;39.28;;;11.20;;
49626;SDS011;35527;54.616;39.786;2023-04-04T16:49:54;27.60;;;7.65;;
49626;SDS011;35527;54.616;39.786;2023-04-04T16:52:56;32.92;;;7.32;;
49626;SDS011;35527;54.616;39.786;2023-04-04T16:56:00;25.23;;;6.45;;
49626;SDS011;35527;54.616;39.786;2023-04-04T16:59:04;22.05;;;6.25;;
49626;SDS011;35527;54.616;39.786;2023-04-04T17:02:08;23.80;;;7.32;;
49626;SDS011;35527;54.616;39.786;2023-04-04T17:05:13;21.58;;;6.63;;
49626;SDS011;35527;54.616;39.786;2023-04-04T17:08:17;20.63;;;7.40;;
49626;SDS011;35527;54.616;39.786;2023-04-04T17:11:20;21.83;;;6.43;;
49626;SDS011;35527;54.616;39.786;2023-04-04T17:14:24;22.05;;;6.25;;
49626;SDS011;35527;54.616;39.786;2023-04-04T17:17:31;26.42;;;6.78;;
49626;SDS011;35527;54.616;39.786;2023-04-04T17:20:35;20.98;;;5.88;;
49626;SDS011;35527;54.616;39.786;2023-04-04T17:23:39;25.73;;;6.60;;
49626;SDS011;35527;54.616;39.786;2023-04-04T17:26:44;32.63;;;7.53;;
49626;SDS011;35527;54.616;39.786;2023-04-04T17:29:50;31.70;;;8.80;;
49626;SDS011;35527;54.616;39.786;2023-04-04T17:32:53;47.30;;;10.40;;
49626;SDS011;35527;54.616;39.786;2023-04-04T17:36:01;32.55;;;7.60;;
49626;SDS011;35527;54.616;39.786;2023-04-04T17:39:04;40.25;;;9.63;;
49626;SDS011;35527;54.616;39.786;2023-04-04T17:42:12;31.95;;;8.68;;
49626;SDS011;35527;54.616;39.786;2023-04-04T17:45:17;35.97;;;8.60;;
49626;SDS011;35527;54.616;39.786;2023-04-04T17:48:20;32.03;;;7.85;;
49626;SDS011;35527;54.616;39.786;2023-04-04T17:51:24;35.50;;;8.57;;
49626;SDS011;35527;54.616;39.786;2023-04-04T17:54:30;30.58;;;8.00;;
49626;SDS011;35527;54.616;39.786;2023-04-04T17:57:34;30.75;;;8.57;;
49626;SDS011;35527;54.616;39.786;2023-04-04T18:00:37;36.55;;;8.05;;
49626;SDS011;35527;54.616;39.786;2023-04-04T18:03:40;40.42;;;8.18;;
49626;SDS011;35527;54.616;39.786;2023-04-04T18:06:46;25.95;;;7.60;;
49626;SDS011;35527;54.616;39.786;2023-04-04T18:09:48;34.25;;;8.05;;
49626;SDS011;35527;54.616;39.786;2023-04-04T18:12:51;39.10;;;8.80;;
49626;SDS011;35527;54.616;39.786;2023-04-04T18:15:55;41.58;;;8.80;;
49626;SDS011;35527;54.616;39.786;2023-04-04T18:18:58;27.38;;;7.60;;
49626;SDS011;35527;54.616;39.786;2023-04-04T18:22:01;29.70;;;6.93;;
49626;SDS011;35527;54.616;39.786;2023-04-04T18:25:05;29.80;;;6.75;;
49626;SDS011;35527;54.616;39.786;2023-04-04T18:28:10;35.10;;;7.57;;
49626;SDS011;35527;54.616;39.786;2023-04-04T18:31:13;23.88;;;6.05;;
49626;SDS011;35527;54.616;39.786;2023-04-04T18:34:18;37.47;;;6.55;;
49626;SDS011;35527;54.616;39.786;2023-04-04T18:37:22;30.77;;;6.20;;
49626;SDS011;35527;54.616;39.786;2023-04-04T18:40:26;36.92;;;7.07;;
49626;SDS011;35527;54.616;39.786;2023-04-04T18:43:29;30.60;;;6.93;;
49626;SDS011;35527;54.616;39.786;2023-04-04T18:46:33;22.95;;;5.47;;
49626;SDS011;35527;54.616;39.786;2023-04-04T18:49:36;18.10;;;5.78;;
49626;SDS011;35527;54.616;39.786;2023-04-04T18:52:40;17.25;;;4.70;;
49626;SDS011;35527;54.616;39.786;2023-04-04T18:55:43;21.67;;;4.90;;
49626;SDS011;35527;54.616;39.786;2023-04-04T18:58:49;23.80;;;5.60;;
49626;SDS011;35527;54.616;39.786;2023-04-04T19:01:55;18.25;;;5.85;;
49626;SDS011;35527;54.616;39.786;2023-04-04T19:04:59;26.75;;;5.65;;
49626;SDS011;35527;54.616;39.786;2023-04-04T19:08:06;21.83;;;5.43;;
49626;SDS011;35527;54.616;39.786;2023-04-04T19:11:15;19.55;;;5.18;;
49626;SDS011;35527;54.616;39.786;2023-04-04T19:17:24;23.20;;;5.35;;